createdAt,value
2022-12-18T00:00:13.780Z,73.96
2022-12-18T00:02:42.195Z,73.77
2022-12-18T00:05:11.048Z,73.41
2022-12-18T00:07:39.691Z,73.42
2022-12-18T00:10:09.862Z,73.88
2022-12-18T00:12:38.321Z,73.54
2022-12-18T00:15:09.421Z,73.66
2022-12-18T00:17:37.702Z,73.70
2022-12-18T00:20:07.295Z,73.93
2022-12-18T00:22:35.680Z,74.27
2022-12-18T00:25:04.097Z,73.98
2022-12-18T00:27:32.407Z,74.09
2022-12-18T00:30:00.677Z,74.00
2022-12-18T00:32:30.351Z,73.94
2022-12-18T00:34:58.826Z,73.72
2022-12-18T00:37:27.112Z,73.65
2022-12-18T00:39:55.433Z,73.71
2022-12-18T00:42:41.369Z,73.82
2022-12-18T00:45:13.036Z,73.93
2022-12-18T00:47:43.024Z,74.13
2022-12-18T00:50:12.256Z,73.68
2022-12-18T00:52:41.836Z,74.01
2022-12-18T00:55:10.522Z,74.01
2022-12-18T00:57:38.883Z,73.83
2022-12-18T01:00:11.530Z,74.08
2022-12-18T01:02:40.413Z,73.88
2022-12-18T01:05:11.688Z,73.71
2022-12-18T01:07:40.279Z,73.93
2022-12-18T01:10:11.740Z,73.80
2022-12-18T01:12:40.604Z,73.73
2022-12-18T01:15:10.244Z,73.88
2022-12-18T01:17:38.678Z,73.49
2022-12-18T01:20:11.465Z,73.60
2022-12-18T01:22:39.771Z,73.64
2022-12-18T01:25:09.176Z,73.49
2022-12-18T01:27:37.478Z,73.35
2022-12-18T01:30:07.275Z,72.95
2022-12-18T01:32:35.860Z,73.04
2022-12-18T01:35:04.385Z,72.79
2022-12-18T01:37:34.307Z,72.83
2022-12-18T01:40:03.347Z,73.07
2022-12-18T01:42:31.802Z,72.85
2022-12-18T01:45:07.929Z,72.73
2022-12-18T01:47:41.078Z,72.93
2022-12-18T01:50:15.224Z,72.72
2022-12-18T01:52:50.900Z,72.76
2022-12-18T01:55:24.491Z,72.51
2022-12-18T01:57:56.948Z,72.83
2022-12-18T02:00:27.484Z,72.95
2022-12-18T02:02:56.407Z,72.21
2022-12-18T02:05:38.641Z,72.65
2022-12-18T02:08:17.185Z,72.36
2022-12-18T02:10:56.369Z,72.19
2022-12-18T02:13:38.857Z,72.14
2022-12-18T02:16:15.992Z,72.55
2022-12-18T02:18:49.790Z,72.07
2022-12-18T02:21:30.499Z,72.12
2022-12-18T02:24:19.982Z,72.09
2022-12-18T02:26:53.080Z,72.28
2022-12-18T02:29:28.478Z,71.54
2022-12-18T02:32:00.591Z,71.99
2022-12-18T02:34:33.653Z,71.83
2022-12-18T02:37:06.751Z,72.02
2022-12-18T02:39:37.650Z,72.16
2022-12-18T02:42:09.088Z,72.33
2022-12-18T02:44:44.501Z,71.95
2022-12-18T02:47:14.546Z,72.09
2022-12-18T02:49:55.765Z,72.08
2022-12-18T02:52:33.726Z,72.02
2022-12-18T02:55:18.015Z,71.82
2022-12-18T02:57:55.170Z,71.65
2022-12-18T03:00:30.767Z,71.80
2022-12-18T03:03:07.623Z,71.76
2022-12-18T03:05:40.832Z,71.18
2022-12-18T03:08:14.604Z,71.45
2022-12-18T03:10:48.074Z,71.55
2022-12-18T03:13:24.157Z,71.09
2022-12-18T03:15:57.058Z,71.31
2022-12-18T03:18:31.916Z,71.38
2022-12-18T03:21:05.881Z,71.30
2022-12-18T03:23:41.750Z,71.44
2022-12-18T03:26:15.281Z,70.97
2022-12-18T03:28:53.372Z,71.22
2022-12-18T03:31:25.049Z,70.57
2022-12-18T03:33:57.392Z,71.13
2022-12-18T03:36:26.906Z,71.26
2022-12-18T03:38:55.434Z,71.20
2022-12-18T03:41:32.113Z,71.40
2022-12-18T03:44:08.887Z,71.63
2022-12-18T03:46:49.499Z,71.37
2022-12-18T03:49:26.120Z,71.49
2022-12-18T03:52:00.136Z,71.07
2022-12-18T03:54:30.256Z,71.37
2022-12-18T03:57:05.854Z,71.66
2022-12-18T03:59:37.597Z,72.01
2022-12-18T04:02:09.158Z,71.74
2022-12-18T04:04:39.477Z,71.91
2022-12-18T04:07:09.032Z,71.45
2022-12-18T04:09:38.761Z,71.68
2022-12-18T04:12:07.423Z,71.23
2022-12-18T04:14:37.472Z,70.93
2022-12-18T04:17:06.079Z,71.02
2022-12-18T04:19:34.452Z,71.23
2022-12-18T04:22:02.709Z,71.18
2022-12-18T04:24:31.068Z,71.06
2022-12-18T04:26:59.381Z,70.84
2022-12-18T04:29:27.694Z,70.71
2022-12-18T04:31:57.375Z,71.58
2022-12-18T04:34:25.744Z,71.37
2022-12-18T04:36:54.124Z,70.92
2022-12-18T04:39:22.505Z,70.76
2022-12-18T04:41:50.864Z,71.14
2022-12-18T04:44:19.815Z,71.09
2022-12-18T04:46:48.169Z,71.29
2022-12-18T04:49:17.902Z,70.87
2022-12-18T04:51:46.196Z,71.41
2022-12-18T04:54:14.521Z,70.83
2022-12-18T04:56:42.893Z,71.68
2022-12-18T04:59:11.338Z,71.35
2022-12-18T05:01:39.919Z,71.45
2022-12-18T05:04:08.451Z,72.01
2022-12-18T05:06:38.326Z,71.88
2022-12-18T05:09:06.723Z,71.97
2022-12-18T05:11:35.011Z,72.21
2022-12-18T05:14:03.401Z,72.24
2022-12-18T05:16:31.815Z,72.22
2022-12-18T05:19:00.155Z,72.35
2022-12-18T05:21:28.538Z,72.52
2022-12-18T05:23:58.170Z,72.54
2022-12-18T05:26:26.524Z,72.62
2022-12-18T05:28:56.910Z,72.71
2022-12-18T05:31:25.606Z,72.68
2022-12-18T05:33:54.069Z,72.62
2022-12-18T05:36:22.465Z,72.74
2022-12-18T05:38:51.210Z,72.61
2022-12-18T05:41:20.913Z,72.82
2022-12-18T05:43:49.415Z,73.27
2022-12-18T05:46:19.644Z,72.83
2022-12-18T05:48:49.206Z,74.03
2022-12-18T05:51:20.545Z,74.18
2022-12-18T05:53:49.235Z,74.01
2022-12-18T05:56:22.244Z,74.39
2022-12-18T05:58:54.169Z,74.14
2022-12-18T06:01:26.451Z,74.14
2022-12-18T06:03:55.086Z,75.04
2022-12-18T06:06:26.789Z,74.66
2022-12-18T06:08:56.398Z,75.00
2022-12-18T06:11:28.625Z,75.05
2022-12-18T06:13:59.548Z,75.43
2022-12-18T06:16:30.365Z,75.14
2022-12-18T06:18:59.725Z,75.10
2022-12-18T06:21:28.974Z,75.35
2022-12-18T06:23:57.758Z,75.17
2022-12-18T06:26:28.601Z,75.27
2022-12-18T06:28:57.268Z,75.49
2022-12-18T06:31:26.034Z,75.30
2022-12-18T06:33:54.459Z,75.79
2022-12-18T06:36:23.285Z,75.43
2022-12-18T06:38:51.822Z,75.21
2022-12-18T06:41:22.370Z,75.83
2022-12-18T06:43:56.796Z,75.52
2022-12-18T06:46:28.050Z,75.53
2022-12-18T06:48:56.455Z,75.40
2022-12-18T06:51:27.323Z,75.46
2022-12-18T06:53:55.987Z,75.93
2022-12-18T06:56:24.690Z,75.90
2022-12-18T06:58:54.587Z,76.09
2022-12-18T07:01:23.700Z,76.53
2022-12-18T07:03:55.844Z,76.46
2022-12-18T07:06:26.942Z,76.01
2022-12-18T07:08:57.138Z,75.98
2022-12-18T07:11:25.793Z,75.76
2022-12-18T07:13:55.976Z,76.29
2022-12-18T07:16:25.927Z,76.33
2022-12-18T07:18:54.983Z,76.55
2022-12-18T07:21:24.678Z,76.43
2022-12-18T07:23:53.341Z,76.50
2022-12-18T07:26:23.854Z,76.57
2022-12-18T07:28:52.439Z,76.09
2022-12-18T07:31:23.902Z,76.49
2022-12-18T07:33:53.614Z,76.46
2022-12-18T07:36:25.517Z,76.70
2022-12-18T07:38:54.536Z,76.40
2022-12-18T07:41:23.458Z,76.25
2022-12-18T07:43:52.337Z,75.93
2022-12-18T07:46:22.414Z,75.83
2022-12-18T07:48:50.902Z,76.17
2022-12-18T07:51:20.743Z,76.12
2022-12-18T07:53:52.160Z,75.70
2022-12-18T07:56:27.736Z,75.62
2022-12-18T07:58:57.316Z,75.37
2022-12-18T08:01:27.598Z,75.51
2022-12-18T08:03:56.285Z,75.70
2022-12-18T08:06:24.962Z,75.99
2022-12-18T08:08:54.878Z,75.80
2022-12-18T08:11:24.788Z,75.33
2022-12-18T08:13:53.329Z,75.73
2022-12-18T08:16:23.889Z,75.71
2022-12-18T08:18:54.842Z,75.48
2022-12-18T08:21:26.301Z,74.71
2022-12-18T08:23:56.857Z,74.95
2022-12-18T08:26:26.157Z,74.12
2022-12-18T08:28:56.944Z,74.70
2022-12-18T08:31:26.581Z,74.67
2022-12-18T08:33:57.073Z,73.92
2022-12-18T08:36:27.468Z,73.96
2022-12-18T08:38:56.221Z,73.29
2022-12-18T08:41:25.321Z,72.74
2022-12-18T08:44:11.567Z,72.85
2022-12-18T08:46:42.558Z,73.21
2022-12-18T08:49:13.587Z,72.06
2022-12-18T08:51:42.802Z,72.27
2022-12-18T08:54:14.684Z,72.40
2022-12-18T08:56:43.013Z,72.41
2022-12-18T08:59:17.549Z,73.03
2022-12-18T09:01:48.744Z,72.87
2022-12-18T09:04:19.635Z,73.54
2022-12-18T09:06:47.938Z,72.98
2022-12-18T09:09:16.270Z,72.84
2022-12-18T09:11:44.674Z,72.66
2022-12-18T09:14:14.488Z,72.94
2022-12-18T09:16:42.948Z,72.37
2022-12-18T09:19:12.079Z,72.58
2022-12-18T09:21:46.289Z,72.48
2022-12-18T09:24:17.459Z,72.18
2022-12-18T09:26:47.386Z,72.27
2022-12-18T09:29:16.916Z,71.80
2022-12-18T09:31:47.496Z,71.93
2022-12-18T09:34:15.782Z,72.22
2022-12-18T09:36:47.596Z,72.19
2022-12-18T09:39:16.324Z,72.24
2022-12-18T09:41:51.051Z,71.20
2022-12-18T09:44:28.256Z,70.65
2022-12-18T09:47:08.133Z,70.68
2022-12-18T09:49:44.632Z,70.75
2022-12-18T09:52:21.603Z,71.06
2022-12-18T09:54:56.643Z,70.92
2022-12-18T09:57:26.678Z,70.83
2022-12-18T10:00:01.226Z,71.10
2022-12-18T10:02:33.507Z,70.74
2022-12-18T10:05:10.067Z,70.49
2022-12-18T10:07:52.345Z,69.95
2022-12-18T10:10:39.654Z,69.61
2022-12-18T10:13:21.892Z,69.95
2022-12-18T10:16:11.199Z,70.52
2022-12-18T10:19:02.461Z,70.45
2022-12-18T10:21:41.748Z,70.36
2022-12-18T10:24:22.863Z,71.21
2022-12-18T10:26:51.139Z,70.72
2022-12-18T10:29:19.621Z,70.84
2022-12-18T10:31:47.999Z,71.19
2022-12-18T10:34:16.736Z,70.73
2022-12-18T10:36:45.185Z,71.00
2022-12-18T10:39:25.971Z,71.02
2022-12-18T10:42:11.025Z,71.01
2022-12-18T10:44:39.733Z,70.85
2022-12-18T10:47:17.406Z,70.97
2022-12-18T10:49:51.943Z,70.65
2022-12-18T10:52:23.746Z,71.13
2022-12-18T10:54:59.219Z,71.30
2022-12-18T10:57:38.039Z,70.55
2022-12-18T11:00:30.466Z,71.39
2022-12-18T11:02:59.884Z,70.45
2022-12-18T11:05:32.422Z,70.27
2022-12-18T11:08:02.916Z,70.34
2022-12-18T11:10:35.643Z,70.65
2022-12-18T11:13:22.819Z,70.53
2022-12-18T11:15:51.710Z,70.07
2022-12-18T11:18:27.277Z,70.54
2022-12-18T11:20:59.646Z,70.19
2022-12-18T11:23:29.313Z,69.89
2022-12-18T11:26:02.778Z,69.83
2022-12-18T11:28:43.313Z,69.78
2022-12-18T11:31:28.610Z,69.82
2022-12-18T11:34:28.658Z,69.92
2022-12-18T11:37:00.181Z,69.47
2022-12-18T11:39:36.223Z,69.43
2022-12-18T11:42:14.626Z,69.22
2022-12-18T11:44:50.558Z,69.04
2022-12-18T11:47:30.727Z,68.77
2022-12-18T11:50:03.758Z,68.77
2022-12-18T11:52:40.253Z,68.97
2022-12-18T11:55:16.311Z,68.37
2022-12-18T11:57:57.521Z,68.22
2022-12-18T12:00:26.956Z,67.82
2022-12-18T12:03:42.045Z,67.28
2022-12-18T12:06:17.252Z,66.84
2022-12-18T12:09:07.080Z,66.75
2022-12-18T12:11:52.271Z,66.26
2022-12-18T12:14:44.955Z,65.08
2022-12-18T12:17:24.361Z,64.26
2022-12-18T12:20:05.198Z,64.61
2022-12-18T12:22:45.545Z,64.71
2022-12-18T12:25:35.447Z,64.14
2022-12-18T12:28:21.939Z,63.76
2022-12-18T12:31:04.756Z,62.94
2022-12-18T12:33:45.438Z,63.92
2022-12-18T12:36:25.577Z,63.23
2022-12-18T12:38:59.762Z,62.97
2022-12-18T12:41:51.165Z,63.30
2022-12-18T12:44:26.356Z,63.25
2022-12-18T12:47:03.469Z,64.20
2022-12-18T12:49:40.426Z,64.14
2022-12-18T12:52:18.733Z,64.77
2022-12-18T12:54:49.314Z,64.80
2022-12-18T12:57:25.048Z,64.21
2022-12-18T13:00:05.178Z,65.41
2022-12-18T13:02:48.995Z,65.23
2022-12-18T13:05:26.702Z,65.86
2022-12-18T13:08:00.325Z,66.21
2022-12-18T13:10:36.187Z,66.25
2022-12-18T13:13:09.265Z,66.29
2022-12-18T13:15:46.146Z,66.53
2022-12-18T13:18:21.545Z,67.18
2022-12-18T13:20:56.494Z,67.24
2022-12-18T13:23:37.333Z,67.50
2022-12-18T13:26:35.714Z,67.11
2022-12-18T13:29:07.278Z,67.63
2022-12-18T13:32:23.056Z,68.04
2022-12-18T13:35:42.243Z,68.22
2022-12-18T13:38:24.891Z,67.96
2022-12-18T13:40:58.963Z,68.45
2022-12-18T13:43:43.912Z,68.84
2022-12-18T13:46:25.824Z,68.71
2022-12-18T13:49:00.456Z,69.41
2022-12-18T13:51:35.197Z,69.90
2022-12-18T13:54:15.907Z,70.14
2022-12-18T13:56:48.081Z,69.43
2022-12-18T13:59:24.796Z,70.09
2022-12-18T14:01:57.260Z,70.32
2022-12-18T14:04:29.210Z,70.39
2022-12-18T14:07:13.903Z,70.91
2022-12-18T14:09:47.567Z,71.04
2022-12-18T14:12:38.293Z,70.74
2022-12-18T14:15:17.273Z,71.28
2022-12-18T14:17:45.984Z,71.34
2022-12-18T14:20:17.369Z,71.58
2022-12-18T14:22:48.815Z,72.00
2022-12-18T14:25:23.178Z,71.99
2022-12-18T14:28:05.404Z,71.59
2022-12-18T14:30:37.824Z,72.05
2022-12-18T14:33:11.012Z,72.08
2022-12-18T14:35:43.037Z,72.07
2022-12-18T14:38:27.272Z,71.79
2022-12-18T14:41:00.029Z,72.32
2022-12-18T14:43:30.654Z,72.23
2022-12-18T14:46:07.805Z,72.66
2022-12-18T14:48:42.177Z,72.41
2022-12-18T14:51:20.640Z,72.16
2022-12-18T14:53:55.951Z,72.44
2022-12-18T14:56:28.262Z,72.16
2022-12-18T14:58:59.081Z,72.56
2022-12-18T15:01:32.148Z,72.19
2022-12-18T15:04:02.574Z,72.25
2022-12-18T15:06:37.273Z,72.11
2022-12-18T15:09:24.216Z,72.22
2022-12-18T15:11:58.969Z,72.30
2022-12-18T15:14:37.071Z,72.37
2022-12-18T15:17:08.823Z,72.48
2022-12-18T15:19:42.826Z,72.30
2022-12-18T15:22:30.509Z,73.26
2022-12-18T15:25:04.051Z,72.71
2022-12-18T15:27:36.675Z,72.72
2022-12-18T15:30:23.780Z,72.62
2022-12-18T15:32:54.131Z,72.43
2022-12-18T15:35:25.654Z,71.89
2022-12-18T15:37:55.146Z,72.17
2022-12-18T15:40:26.378Z,71.93
2022-12-18T15:43:14.963Z,72.77
2022-12-18T15:45:43.363Z,72.12
2022-12-18T15:48:22.418Z,72.06
2022-12-18T15:50:52.635Z,72.34
2022-12-18T15:53:21.838Z,72.50
2022-12-18T15:56:09.618Z,72.42
2022-12-18T15:58:39.255Z,72.04
2022-12-18T16:01:09.878Z,71.76
2022-12-18T16:03:39.040Z,72.51
2022-12-18T16:06:08.660Z,72.55
2022-12-18T16:08:37.196Z,72.96
2022-12-18T16:11:19.102Z,72.75
2022-12-18T16:13:48.599Z,72.81
2022-12-18T16:16:17.433Z,72.69
2022-12-18T16:18:45.906Z,72.43
2022-12-18T16:21:14.503Z,72.57
2022-12-18T16:23:43.153Z,72.69
2022-12-18T16:26:13.207Z,72.41
2022-12-18T16:28:48.251Z,72.32
2022-12-18T16:31:17.218Z,72.60
2022-12-18T16:33:45.589Z,72.66
2022-12-18T16:36:14.277Z,72.94
2022-12-18T16:38:43.114Z,73.03
2022-12-18T16:41:33.423Z,72.67
2022-12-18T16:44:02.319Z,73.13
2022-12-18T16:46:31.432Z,73.35
2022-12-18T16:49:00.867Z,73.40
2022-12-18T16:51:30.092Z,73.22
2022-12-18T16:53:58.899Z,73.15
2022-12-18T16:56:29.513Z,73.19
2022-12-18T16:59:00.390Z,72.66
2022-12-18T17:01:31.241Z,73.16
2022-12-18T17:04:02.410Z,72.93
2022-12-18T17:06:34.014Z,72.91
2022-12-18T17:09:05.495Z,73.01
2022-12-18T17:11:37.012Z,72.58
2022-12-18T17:14:09.467Z,73.28
2022-12-18T17:16:37.946Z,73.21
2022-12-18T17:19:13.737Z,73.00
2022-12-18T17:21:45.916Z,73.44
2022-12-18T17:24:14.516Z,72.93
2022-12-18T17:26:44.626Z,72.92
2022-12-18T17:29:17.349Z,72.58
2022-12-18T17:31:48.520Z,72.90
2022-12-18T17:34:18.317Z,73.09
2022-12-18T17:36:46.809Z,73.09
2022-12-18T17:39:21.547Z,73.13
2022-12-18T17:41:55.046Z,73.28
2022-12-18T17:44:24.119Z,73.11
2022-12-18T17:46:53.396Z,73.42
2022-12-18T17:49:22.319Z,73.56
2022-12-18T17:51:51.618Z,73.28
2022-12-18T17:54:20.200Z,73.32
2022-12-18T17:56:50.463Z,73.29
2022-12-18T17:59:18.757Z,73.37
2022-12-18T18:01:47.385Z,72.67
2022-12-18T18:04:16.678Z,72.93
2022-12-18T18:06:45.100Z,72.86
2022-12-18T18:09:16.587Z,73.50
2022-12-18T18:12:03.359Z,73.72
2022-12-18T18:14:33.645Z,73.47
2022-12-18T18:17:04.719Z,73.38
2022-12-18T18:19:35.892Z,73.88
2022-12-18T18:22:04.456Z,73.87
2022-12-18T18:24:35.365Z,74.20
2022-12-18T18:27:03.745Z,74.21
2022-12-18T18:29:33.800Z,74.29
2022-12-18T18:32:02.406Z,73.98
2022-12-18T18:34:33.030Z,74.14
2022-12-18T18:37:01.533Z,74.23
2022-12-18T18:39:30.202Z,74.68
2022-12-18T18:41:59.534Z,74.23
2022-12-18T18:44:28.066Z,74.15
2022-12-18T18:46:59.657Z,74.23
2022-12-18T18:49:28.760Z,74.29
2022-12-18T18:51:59.273Z,74.17
2022-12-18T18:54:31.589Z,74.31
2022-12-18T18:59:49.639Z,74.32
2022-12-18T19:02:21.701Z,74.46
2022-12-18T19:04:50.396Z,74.25
2022-12-18T19:07:29.582Z,74.28
2022-12-18T19:10:03.476Z,74.60
2022-12-18T19:12:50.329Z,74.78
2022-12-18T19:15:18.703Z,74.58
2022-12-18T19:17:48.542Z,74.92
2022-12-18T19:20:17.859Z,75.17
2022-12-18T19:22:55.262Z,75.32
2022-12-18T19:25:40.292Z,75.79
2022-12-18T19:28:21.262Z,75.71
2022-12-18T19:30:56.338Z,75.41
2022-12-18T19:33:42.840Z,75.49
2022-12-18T19:36:16.002Z,75.91
2022-12-18T19:38:45.592Z,75.51
2022-12-18T19:41:15.384Z,75.70
2022-12-18T19:43:45.147Z,75.81
2022-12-18T19:46:16.630Z,75.44
2022-12-18T19:48:48.045Z,75.42
2022-12-18T19:51:20.079Z,76.11
2022-12-18T19:53:52.412Z,76.03
2022-12-18T19:56:27.961Z,76.33
2022-12-18T19:58:56.789Z,76.59
2022-12-18T20:01:28.176Z,76.58
2022-12-18T20:03:59.637Z,76.76
2022-12-18T20:06:33.977Z,76.30
2022-12-18T20:09:06.072Z,76.57
2022-12-18T20:11:39.667Z,76.04
2022-12-18T20:14:11.458Z,76.11
2022-12-18T20:16:40.177Z,76.16
2022-12-18T20:19:13.383Z,76.06
2022-12-18T20:21:42.792Z,76.31
2022-12-18T20:24:11.331Z,76.34
2022-12-18T20:26:40.608Z,75.96
2022-12-18T20:29:09.211Z,76.19
2022-12-18T20:31:37.769Z,76.05
2022-12-18T20:34:09.971Z,75.92
2022-12-18T20:36:41.095Z,75.82
2022-12-18T20:39:12.220Z,75.77
2022-12-18T20:41:43.045Z,75.89
2022-12-18T20:44:23.663Z,76.08
2022-12-18T20:46:54.956Z,76.05
2022-12-18T20:49:28.773Z,76.06
2022-12-18T20:51:59.557Z,75.99
2022-12-18T20:54:29.123Z,75.76
2022-12-18T20:56:58.390Z,75.21
2022-12-18T20:59:26.886Z,75.58
2022-12-18T21:01:56.058Z,75.26
2022-12-18T21:04:27.179Z,75.29
2022-12-18T21:07:02.121Z,75.49
2022-12-18T21:09:37.793Z,75.38
2022-12-18T21:12:30.165Z,75.63
2022-12-18T21:15:03.128Z,75.69
2022-12-18T21:17:31.559Z,76.02
2022-12-18T21:20:17.584Z,75.83
2022-12-18T21:22:46.826Z,75.71
2022-12-18T21:25:15.490Z,75.96
2022-12-18T21:27:44.021Z,75.79
2022-12-18T21:30:13.625Z,75.85
2022-12-18T21:32:42.527Z,75.76
2022-12-18T21:35:11.394Z,75.72
2022-12-18T21:37:41.225Z,75.75
2022-12-18T21:40:11.418Z,75.92
2022-12-18T21:42:57.389Z,75.74
2022-12-18T21:45:26.247Z,75.44
2022-12-18T21:47:54.718Z,75.21
2022-12-18T21:50:23.465Z,75.43
2022-12-18T21:52:53.233Z,75.59
2022-12-18T21:55:21.636Z,74.88
2022-12-18T21:57:50.355Z,74.16
2022-12-18T22:00:19.843Z,74.56
2022-12-18T22:03:15.567Z,74.88
2022-12-18T22:05:37.593Z,74.92
2022-12-18T22:08:07.885Z,75.30
2022-12-18T22:10:39.412Z,75.50
2022-12-18T22:13:09.299Z,75.33
2022-12-18T22:15:37.824Z,75.12
2022-12-18T22:18:06.263Z,75.38
2022-12-18T22:20:34.722Z,74.92
2022-12-18T22:23:05.648Z,75.22
2022-12-18T22:25:37.268Z,74.95
2022-12-18T22:28:25.611Z,75.33
2022-12-18T22:30:54.877Z,74.68
2022-12-18T22:33:29.102Z,75.00
2022-12-18T22:35:57.476Z,74.81
2022-12-18T22:38:27.489Z,74.85
2022-12-18T22:40:57.752Z,74.91
2022-12-18T22:43:26.193Z,74.66
2022-12-18T22:45:55.471Z,74.50
2022-12-18T22:48:24.591Z,74.10
2022-12-18T22:50:53.090Z,74.53
2022-12-18T22:53:26.783Z,74.66
2022-12-18T22:56:03.432Z,74.92
2022-12-18T22:58:31.764Z,75.07
2022-12-18T23:01:01.500Z,74.95
2022-12-18T23:03:30.300Z,74.61
2022-12-18T23:06:05.473Z,74.58
2022-12-18T23:08:34.463Z,74.39
2022-12-18T23:11:06.817Z,74.32
2022-12-18T23:13:36.203Z,74.44
2022-12-18T23:16:07.823Z,74.26
2022-12-18T23:18:37.173Z,74.75
2022-12-18T23:21:07.347Z,73.99
2022-12-18T23:23:37.672Z,73.92
2022-12-18T23:26:10.759Z,74.15
2022-12-18T23:28:40.346Z,74.36
2022-12-18T23:31:11.759Z,74.56
2022-12-18T23:33:42.818Z,74.55
2022-12-18T23:36:13.627Z,74.33
2022-12-18T23:38:42.594Z,73.90
2022-12-18T23:41:15.986Z,73.50
2022-12-18T23:43:44.631Z,73.15
2022-12-18T23:46:21.275Z,74.10
2022-12-18T23:48:50.165Z,74.00
2022-12-18T23:51:23.411Z,73.79
2022-12-18T23:53:52.098Z,73.93
2022-12-18T23:56:22.403Z,74.62
2022-12-18T23:58:52.665Z,74.53
